sensor_id;sensor_type;location;lat;lon;timestamp;temperature;humidity
6662;DHT22;3367;48.714;8.994;2023-02-15T00:00:05;-1.00;1.00
6662;DHT22;3367;48.714;8.994;2023-02-15T00:02:33;-1.00;1.00
6662;DHT22;3367;48.714;8.994;2023-02-15T00:05:02;-1.10;1.00
6662;DHT22;3367;48.714;8.994;2023-02-15T00:07:28;-1.10;1.00
6662;DHT22;3367;48.714;8.994;2023-02-15T00:09:55;-1.20;1.00
6662;DHT22;3367;48.714;8.994;2023-02-15T00:12:22;-1.20;1.00
6662;DHT22;3367;48.714;8.994;2023-02-15T00:14:48;-1.10;1.00
6662;DHT22;3367;48.714;8.994;2023-02-15T00:17:15;-1.10;1.00
6662;DHT22;3367;48.714;8.994;2023-02-15T00:19:42;-1.10;1.00
6662;DHT22;3367;48.714;8.994;2023-02-15T00:22:10;-1.10;1.00
6662;DHT22;3367;48.714;8.994;2023-02-15T00:24:37;-1.20;1.00
6662;DHT22;3367;48.714;8.994;2023-02-15T00:27:04;-1.20;1.00
6662;DHT22;3367;48.714;8.994;2023-02-15T00:29:31;-1.20;1.00
6662;DHT22;3367;48.714;8.994;2023-02-15T00:31:58;-1.20;1.00
6662;DHT22;3367;48.714;8.994;2023-02-15T00:34:27;-1.20;1.00
6662;DHT22;3367;48.714;8.994;2023-02-15T00:36:54;-1.30;1.00
6662;DHT22;3367;48.714;8.994;2023-02-15T00:39:22;-1.30;1.00
6662;DHT22;3367;48.714;8.994;2023-02-15T00:41:50;-1.30;1.00
6662;DHT22;3367;48.714;8.994;2023-02-15T00:44:17;-1.20;75.00
6662;DHT22;3367;48.714;8.994;2023-02-15T00:46:43;-1.30;1.00
6662;DHT22;3367;48.714;8.994;2023-02-15T00:49:10;-1.20;99.90
6662;DHT22;3367;48.714;8.994;2023-02-15T00:51:37;-1.20;84.60
6662;DHT22;3367;48.714;8.994;2023-02-15T00:54:04;-1.30;1.00
6662;DHT22;3367;48.714;8.994;2023-02-15T00:56:33;-1.30;1.00
6662;DHT22;3367;48.714;8.994;2023-02-15T00:58:59;-1.30;63.40
6662;DHT22;3367;48.714;8.994;2023-02-15T01:01:26;-1.30;99.90
6662;DHT22;3367;48.714;8.994;2023-02-15T01:03:53;-1.30;99.90
6662;DHT22;3367;48.714;8.994;2023-02-15T01:06:20;-1.30;99.90
6662;DHT22;3367;48.714;8.994;2023-02-15T01:08:47;-1.30;49.20
6662;DHT22;3367;48.714;8.994;2023-02-15T01:11:15;-1.40;12.10
6662;DHT22;3367;48.714;8.994;2023-02-15T01:13:48;-1.30;99.90
6662;DHT22;3367;48.714;8.994;2023-02-15T01:16:16;-1.40;99.90
6662;DHT22;3367;48.714;8.994;2023-02-15T01:18:43;-1.40;16.40
6662;DHT22;3367;48.714;8.994;2023-02-15T01:21:11;-1.50;1.00
6662;DHT22;3367;48.714;8.994;2023-02-15T01:23:39;-1.50;1.00
6662;DHT22;3367;48.714;8.994;2023-02-15T01:26:06;-1.60;1.00
6662;DHT22;3367;48.714;8.994;2023-02-15T01:28:33;-1.60;1.00
6662;DHT22;3367;48.714;8.994;2023-02-15T01:31:06;-1.60;1.00
6662;DHT22;3367;48.714;8.994;2023-02-15T01:33:34;-1.70;1.00
6662;DHT22;3367;48.714;8.994;2023-02-15T01:36:01;-1.70;1.00
6662;DHT22;3367;48.714;8.994;2023-02-15T01:38:28;-1.70;1.00
6662;DHT22;3367;48.714;8.994;2023-02-15T01:40:55;-1.70;1.00
6662;DHT22;3367;48.714;8.994;2023-02-15T01:43:44;-1.70;1.00
6662;DHT22;3367;48.714;8.994;2023-02-15T01:46:14;-1.70;1.00
6662;DHT22;3367;48.714;8.994;2023-02-15T01:48:44;-1.70;1.00
6662;DHT22;3367;48.714;8.994;2023-02-15T01:51:14;-1.70;1.00
6662;DHT22;3367;48.714;8.994;2023-02-15T01:53:47;-1.80;1.00
6662;DHT22;3367;48.714;8.994;2023-02-15T01:56:20;-1.80;1.00
6662;DHT22;3367;48.714;8.994;2023-02-15T01:58:49;-1.80;1.00
6662;DHT22;3367;48.714;8.994;2023-02-15T02:01:19;-1.80;1.00
6662;DHT22;3367;48.714;8.994;2023-02-15T02:03:56;-1.90;1.00
6662;DHT22;3367;48.714;8.994;2023-02-15T02:06:24;-1.90;1.00
6662;DHT22;3367;48.714;8.994;2023-02-15T02:08:53;-1.90;1.00
6662;DHT22;3367;48.714;8.994;2023-02-15T02:11:20;-1.90;1.00
6662;DHT22;3367;48.714;8.994;2023-02-15T02:13:47;-1.90;1.00
6662;DHT22;3367;48.714;8.994;2023-02-15T02:16:17;-1.90;1.00
6662;DHT22;3367;48.714;8.994;2023-02-15T02:19:01;-1.90;4.00
6662;DHT22;3367;48.714;8.994;2023-02-15T02:21:52;-1.90;99.90
6662;DHT22;3367;48.714;8.994;2023-02-15T02:24:47;-1.90;99.90
6662;DHT22;3367;48.714;8.994;2023-02-15T02:27:29;-1.80;99.90
6662;DHT22;3367;48.714;8.994;2023-02-15T02:30:43;-1.80;99.90
6662;DHT22;3367;48.714;8.994;2023-02-15T02:33:24;-1.80;99.90
6662;DHT22;3367;48.714;8.994;2023-02-15T02:36:00;-1.90;99.90
6662;DHT22;3367;48.714;8.994;2023-02-15T02:38:34;-1.90;99.90
6662;DHT22;3367;48.714;8.994;2023-02-15T02:41:12;-1.90;99.90
6662;DHT22;3367;48.714;8.994;2023-02-15T02:43:47;-2.00;99.90
6662;DHT22;3367;48.714;8.994;2023-02-15T02:46:19;-2.10;99.90
6662;DHT22;3367;48.714;8.994;2023-02-15T02:48:49;-2.10;99.90
6662;DHT22;3367;48.714;8.994;2023-02-15T02:51:16;-2.10;99.90
6662;DHT22;3367;48.714;8.994;2023-02-15T02:53:50;-2.20;99.90
6662;DHT22;3367;48.714;8.994;2023-02-15T02:56:21;-2.20;63.10
6662;DHT22;3367;48.714;8.994;2023-02-15T02:58:54;-2.20;73.30
6662;DHT22;3367;48.714;8.994;2023-02-15T03:01:24;-2.20;99.90
6662;DHT22;3367;48.714;8.994;2023-02-15T03:03:56;-2.20;99.90
6662;DHT22;3367;48.714;8.994;2023-02-15T03:06:27;-2.20;99.90
6662;DHT22;3367;48.714;8.994;2023-02-15T03:09:00;-2.30;99.90
6662;DHT22;3367;48.714;8.994;2023-02-15T03:11:28;-2.30;99.90
6662;DHT22;3367;48.714;8.994;2023-02-15T03:13:54;-2.40;51.60
6662;DHT22;3367;48.714;8.994;2023-02-15T03:16:21;-2.40;25.60
6662;DHT22;3367;48.714;8.994;2023-02-15T03:18:58;-2.50;20.30
6662;DHT22;3367;48.714;8.994;2023-02-15T03:21:32;-2.50;54.90
6662;DHT22;3367;48.714;8.994;2023-02-15T03:24:04;-2.50;99.90
6662;DHT22;3367;48.714;8.994;2023-02-15T03:26:34;-2.50;94.70
6662;DHT22;3367;48.714;8.994;2023-02-15T03:29:04;-2.50;72.00
6662;DHT22;3367;48.714;8.994;2023-02-15T03:31:35;-2.50;56.50
6662;DHT22;3367;48.714;8.994;2023-02-15T03:34:08;-2.50;70.00
6662;DHT22;3367;48.714;8.994;2023-02-15T03:36:41;-2.50;99.90
6662;DHT22;3367;48.714;8.994;2023-02-15T03:39:17;-2.50;99.90
6662;DHT22;3367;48.714;8.994;2023-02-15T03:41:49;-2.50;99.90
6662;DHT22;3367;48.714;8.994;2023-02-15T03:44:25;-2.50;99.90
6662;DHT22;3367;48.714;8.994;2023-02-15T03:46:58;-2.50;99.90
6662;DHT22;3367;48.714;8.994;2023-02-15T03:49:34;-2.50;99.90
6662;DHT22;3367;48.714;8.994;2023-02-15T03:52:04;-2.50;99.90
6662;DHT22;3367;48.714;8.994;2023-02-15T03:54:33;-2.50;80.90
6662;DHT22;3367;48.714;8.994;2023-02-15T03:57:14;-2.60;99.90
6662;DHT22;3367;48.714;8.994;2023-02-15T03:59:59;-2.60;99.90
6662;DHT22;3367;48.714;8.994;2023-02-15T04:02:55;-2.60;99.90
6662;DHT22;3367;48.714;8.994;2023-02-15T04:05:25;-2.60;99.90
6662;DHT22;3367;48.714;8.994;2023-02-15T04:07:52;-2.60;99.90
6662;DHT22;3367;48.714;8.994;2023-02-15T04:10:18;-2.60;99.90
6662;DHT22;3367;48.714;8.994;2023-02-15T04:13:03;-2.60;99.90
6662;DHT22;3367;48.714;8.994;2023-02-15T04:15:29;-2.40;1.00
6662;DHT22;3367;48.714;8.994;2023-02-15T04:18:14;-2.30;1.00
6662;DHT22;3367;48.714;8.994;2023-02-15T04:20:44;-2.30;1.00
6662;DHT22;3367;48.714;8.994;2023-02-15T04:23:28;-2.40;99.90
6662;DHT22;3367;48.714;8.994;2023-02-15T04:26:13;-2.50;99.90
6662;DHT22;3367;48.714;8.994;2023-02-15T04:28:39;-2.50;99.90
6662;DHT22;3367;48.714;8.994;2023-02-15T04:31:06;-2.50;99.90
6662;DHT22;3367;48.714;8.994;2023-02-15T04:33:33;-2.50;99.90
6662;DHT22;3367;48.714;8.994;2023-02-15T04:36:03;-2.40;99.90
6662;DHT22;3367;48.714;8.994;2023-02-15T04:38:29;-2.50;99.90
6662;DHT22;3367;48.714;8.994;2023-02-15T04:40:56;-2.40;1.00
6662;DHT22;3367;48.714;8.994;2023-02-15T04:43:23;-2.30;1.00
6662;DHT22;3367;48.714;8.994;2023-02-15T04:45:50;-2.40;1.00
6662;DHT22;3367;48.714;8.994;2023-02-15T04:48:17;-2.30;1.00
6662;DHT22;3367;48.714;8.994;2023-02-15T04:50:45;-2.30;1.00
6662;DHT22;3367;48.714;8.994;2023-02-15T04:53:13;-2.40;99.90
6662;DHT22;3367;48.714;8.994;2023-02-15T04:55:41;-2.40;99.90
6662;DHT22;3367;48.714;8.994;2023-02-15T04:58:08;-2.50;99.90
6662;DHT22;3367;48.714;8.994;2023-02-15T05:00:35;-2.60;99.90
6662;DHT22;3367;48.714;8.994;2023-02-15T05:03:02;-2.60;99.90
6662;DHT22;3367;48.714;8.994;2023-02-15T05:05:29;-2.70;99.90
6662;DHT22;3367;48.714;8.994;2023-02-15T05:07:56;-2.70;99.90
6662;DHT22;3367;48.714;8.994;2023-02-15T05:10:24;-2.70;99.90
6662;DHT22;3367;48.714;8.994;2023-02-15T05:12:50;-2.70;99.90
6662;DHT22;3367;48.714;8.994;2023-02-15T05:15:17;-2.70;99.90
6662;DHT22;3367;48.714;8.994;2023-02-15T05:17:44;-2.70;99.90
6662;DHT22;3367;48.714;8.994;2023-02-15T05:20:11;-2.80;99.90
6662;DHT22;3367;48.714;8.994;2023-02-15T05:22:38;-2.70;1.00
6662;DHT22;3367;48.714;8.994;2023-02-15T05:25:06;-2.60;1.00
6662;DHT22;3367;48.714;8.994;2023-02-15T05:27:51;-2.60;1.00
6662;DHT22;3367;48.714;8.994;2023-02-15T05:30:36;-2.50;1.00
6662;DHT22;3367;48.714;8.994;2023-02-15T05:33:03;-2.50;1.00
6662;DHT22;3367;48.714;8.994;2023-02-15T05:35:29;-2.50;1.00
6662;DHT22;3367;48.714;8.994;2023-02-15T05:37:56;-2.50;1.00
6662;DHT22;3367;48.714;8.994;2023-02-15T05:40:23;-2.60;1.00
6662;DHT22;3367;48.714;8.994;2023-02-15T05:42:49;-2.60;1.00
6662;DHT22;3367;48.714;8.994;2023-02-15T05:45:18;-2.60;1.00
6662;DHT22;3367;48.714;8.994;2023-02-15T05:47:45;-2.60;1.00
6662;DHT22;3367;48.714;8.994;2023-02-15T05:50:11;-2.70;99.90
6662;DHT22;3367;48.714;8.994;2023-02-15T05:52:38;-2.70;99.90
6662;DHT22;3367;48.714;8.994;2023-02-15T05:55:05;-2.70;99.90
6662;DHT22;3367;48.714;8.994;2023-02-15T05:57:34;-2.80;99.90
6662;DHT22;3367;48.714;8.994;2023-02-15T06:00:01;-2.80;99.90
6662;DHT22;3367;48.714;8.994;2023-02-15T06:02:33;-2.80;99.90
6662;DHT22;3367;48.714;8.994;2023-02-15T06:05:00;-2.90;99.90
6662;DHT22;3367;48.714;8.994;2023-02-15T06:07:26;-2.90;99.90
6662;DHT22;3367;48.714;8.994;2023-02-15T06:09:53;-2.90;99.90
6662;DHT22;3367;48.714;8.994;2023-02-15T06:12:20;-2.90;1.00
6662;DHT22;3367;48.714;8.994;2023-02-15T06:14:47;-2.90;1.00
6662;DHT22;3367;48.714;8.994;2023-02-15T06:17:14;-2.80;1.00
6662;DHT22;3367;48.714;8.994;2023-02-15T06:19:43;-2.80;1.00
6662;DHT22;3367;48.714;8.994;2023-02-15T06:22:10;-2.80;99.90
6662;DHT22;3367;48.714;8.994;2023-02-15T06:24:39;-2.70;99.90
6662;DHT22;3367;48.714;8.994;2023-02-15T06:27:09;-2.90;99.90
6662;DHT22;3367;48.714;8.994;2023-02-15T06:29:36;-2.90;99.90
6662;DHT22;3367;48.714;8.994;2023-02-15T06:32:04;-3.00;99.90
6662;DHT22;3367;48.714;8.994;2023-02-15T06:34:31;-3.00;99.90
6662;DHT22;3367;48.714;8.994;2023-02-15T06:37:00;-2.90;99.90
6662;DHT22;3367;48.714;8.994;2023-02-15T06:39:27;-2.90;99.90
6662;DHT22;3367;48.714;8.994;2023-02-15T06:41:54;-2.70;99.90
6662;DHT22;3367;48.714;8.994;2023-02-15T06:44:21;-2.80;99.90
6662;DHT22;3367;48.714;8.994;2023-02-15T06:46:48;-2.70;1.00
6662;DHT22;3367;48.714;8.994;2023-02-15T06:49:15;-2.60;1.00
6662;DHT22;3367;48.714;8.994;2023-02-15T06:51:42;-2.60;1.00
6662;DHT22;3367;48.714;8.994;2023-02-15T06:54:10;-2.50;1.00
6662;DHT22;3367;48.714;8.994;2023-02-15T06:56:36;-2.40;1.00
6662;DHT22;3367;48.714;8.994;2023-02-15T06:59:04;-2.40;1.00
6662;DHT22;3367;48.714;8.994;2023-02-15T07:01:30;-2.40;1.00
6662;DHT22;3367;48.714;8.994;2023-02-15T07:03:57;-2.40;1.00
6662;DHT22;3367;48.714;8.994;2023-02-15T07:06:24;-2.40;1.00
6662;DHT22;3367;48.714;8.994;2023-02-15T07:08:51;-2.40;1.00
6662;DHT22;3367;48.714;8.994;2023-02-15T07:11:19;-2.30;1.00
6662;DHT22;3367;48.714;8.994;2023-02-15T07:14:03;-2.20;1.00
6662;DHT22;3367;48.714;8.994;2023-02-15T07:16:30;-2.00;1.00
6662;DHT22;3367;48.714;8.994;2023-02-15T07:18:57;-1.90;1.00
6662;DHT22;3367;48.714;8.994;2023-02-15T07:21:23;-1.80;1.00
6662;DHT22;3367;48.714;8.994;2023-02-15T07:23:50;-1.60;1.00
6662;DHT22;3367;48.714;8.994;2023-02-15T07:26:18;-1.60;1.00
6662;DHT22;3367;48.714;8.994;2023-02-15T07:28:45;-1.50;1.00
6662;DHT22;3367;48.714;8.994;2023-02-15T07:31:12;-1.50;1.00
6662;DHT22;3367;48.714;8.994;2023-02-15T07:33:39;-1.40;1.00
6662;DHT22;3367;48.714;8.994;2023-02-15T07:36:06;-1.40;1.00
6662;DHT22;3367;48.714;8.994;2023-02-15T07:38:36;-1.30;1.00
6662;DHT22;3367;48.714;8.994;2023-02-15T07:41:05;-1.20;1.00
6662;DHT22;3367;48.714;8.994;2023-02-15T07:43:35;-1.10;1.00
6662;DHT22;3367;48.714;8.994;2023-02-15T07:46:05;-1.10;1.00
6662;DHT22;3367;48.714;8.994;2023-02-15T07:48:33;-1.00;1.00
6662;DHT22;3367;48.714;8.994;2023-02-15T07:51:00;-0.90;1.00
6662;DHT22;3367;48.714;8.994;2023-02-15T07:53:27;-0.90;1.00
6662;DHT22;3367;48.714;8.994;2023-02-15T07:55:54;-0.80;1.00
6662;DHT22;3367;48.714;8.994;2023-02-15T07:58:24;-0.70;1.00
6662;DHT22;3367;48.714;8.994;2023-02-15T08:01:13;-0.60;1.00
6662;DHT22;3367;48.714;8.994;2023-02-15T08:03:39;-0.50;1.00
6662;DHT22;3367;48.714;8.994;2023-02-15T08:06:07;-0.40;1.00
6662;DHT22;3367;48.714;8.994;2023-02-15T08:08:34;-0.20;1.00
6662;DHT22;3367;48.714;8.994;2023-02-15T08:11:02;-0.10;1.00
6662;DHT22;3367;48.714;8.994;2023-02-15T08:13:48;0.00;1.00
6662;DHT22;3367;48.714;8.994;2023-02-15T08:16:22;0.10;1.00
6662;DHT22;3367;48.714;8.994;2023-02-15T08:18:49;0.20;1.00
6662;DHT22;3367;48.714;8.994;2023-02-15T08:21:16;0.40;99.90
6662;DHT22;3367;48.714;8.994;2023-02-15T08:23:43;0.50;1.00
6662;DHT22;3367;48.714;8.994;2023-02-15T08:26:10;0.60;1.00
6662;DHT22;3367;48.714;8.994;2023-02-15T08:28:37;0.80;1.00
6662;DHT22;3367;48.714;8.994;2023-02-15T08:31:05;0.90;1.00
6662;DHT22;3367;48.714;8.994;2023-02-15T08:33:33;1.10;99.90
6662;DHT22;3367;48.714;8.994;2023-02-15T08:36:03;1.20;99.90
6662;DHT22;3367;48.714;8.994;2023-02-15T08:38:31;1.40;1.00
6662;DHT22;3367;48.714;8.994;2023-02-15T08:40:58;1.50;99.90
6662;DHT22;3367;48.714;8.994;2023-02-15T08:43:25;1.60;1.00
6662;DHT22;3367;48.714;8.994;2023-02-15T08:45:51;1.80;1.00
6662;DHT22;3367;48.714;8.994;2023-02-15T08:48:18;1.90;99.90
6662;DHT22;3367;48.714;8.994;2023-02-15T08:50:46;2.00;1.00
6662;DHT22;3367;48.714;8.994;2023-02-15T08:53:13;2.10;1.00
6662;DHT22;3367;48.714;8.994;2023-02-15T08:55:40;2.20;1.00
6662;DHT22;3367;48.714;8.994;2023-02-15T08:58:06;2.40;1.00
6662;DHT22;3367;48.714;8.994;2023-02-15T09:00:33;2.50;1.00
6662;DHT22;3367;48.714;8.994;2023-02-15T09:03:00;2.60;99.90
6662;DHT22;3367;48.714;8.994;2023-02-15T09:05:27;2.80;1.00
6662;DHT22;3367;48.714;8.994;2023-02-15T09:07:55;2.90;1.00
6662;DHT22;3367;48.714;8.994;2023-02-15T09:10:22;3.10;1.00
6662;DHT22;3367;48.714;8.994;2023-02-15T09:12:48;3.20;1.00
6662;DHT22;3367;48.714;8.994;2023-02-15T09:15:16;3.40;99.90
6662;DHT22;3367;48.714;8.994;2023-02-15T09:17:43;3.50;99.90
6662;DHT22;3367;48.714;8.994;2023-02-15T09:20:10;3.60;99.90
6662;DHT22;3367;48.714;8.994;2023-02-15T09:22:37;3.80;99.90
6662;DHT22;3367;48.714;8.994;2023-02-15T09:25:06;3.90;19.60
6662;DHT22;3367;48.714;8.994;2023-02-15T09:27:32;4.10;1.00
6662;DHT22;3367;48.714;8.994;2023-02-15T09:29:59;4.20;1.00
6662;DHT22;3367;48.714;8.994;2023-02-15T09:32:26;4.40;1.00
6662;DHT22;3367;48.714;8.994;2023-02-15T09:34:53;4.40;1.00
6662;DHT22;3367;48.714;8.994;2023-02-15T09:37:19;4.60;1.00
6662;DHT22;3367;48.714;8.994;2023-02-15T09:39:46;4.70;1.00
6662;DHT22;3367;48.714;8.994;2023-02-15T09:42:35;4.90;1.00
6662;DHT22;3367;48.714;8.994;2023-02-15T09:45:08;5.10;1.00
6662;DHT22;3367;48.714;8.994;2023-02-15T09:48:16;5.20;99.90
6662;DHT22;3367;48.714;8.994;2023-02-15T09:50:58;5.30;99.90
6662;DHT22;3367;48.714;8.994;2023-02-15T09:53:38;5.50;99.90
6662;DHT22;3367;48.714;8.994;2023-02-15T09:56:15;5.60;99.90
6662;DHT22;3367;48.714;8.994;2023-02-15T09:58:51;5.80;99.90
6662;DHT22;3367;48.714;8.994;2023-02-15T10:01:28;5.80;99.90
6662;DHT22;3367;48.714;8.994;2023-02-15T10:04:09;5.80;99.90
6662;DHT22;3367;48.714;8.994;2023-02-15T10:06:43;5.80;99.90
6662;DHT22;3367;48.714;8.994;2023-02-15T10:09:31;6.00;99.90
6662;DHT22;3367;48.714;8.994;2023-02-15T10:12:15;6.10;99.90
6662;DHT22;3367;48.714;8.994;2023-02-15T10:15:00;6.30;99.90
6662;DHT22;3367;48.714;8.994;2023-02-15T10:17:42;6.40;99.90
6662;DHT22;3367;48.714;8.994;2023-02-15T10:20:23;6.60;99.90
6662;DHT22;3367;48.714;8.994;2023-02-15T10:23:13;6.70;1.00
6662;DHT22;3367;48.714;8.994;2023-02-15T10:25:47;7.00;1.00
6662;DHT22;3367;48.714;8.994;2023-02-15T10:28:17;7.10;1.00
6662;DHT22;3367;48.714;8.994;2023-02-15T10:30:48;7.30;1.00
6662;DHT22;3367;48.714;8.994;2023-02-15T10:33:31;7.40;1.00
6662;DHT22;3367;48.714;8.994;2023-02-15T10:36:20;7.50;1.00
6662;DHT22;3367;48.714;8.994;2023-02-15T10:38:54;7.60;1.00
6662;DHT22;3367;48.714;8.994;2023-02-15T10:41:32;7.70;1.00
6662;DHT22;3367;48.714;8.994;2023-02-15T10:44:24;7.80;1.00
6662;DHT22;3367;48.714;8.994;2023-02-15T10:47:05;8.00;1.00
6662;DHT22;3367;48.714;8.994;2023-02-15T10:49:51;8.20;1.00
6662;DHT22;3367;48.714;8.994;2023-02-15T10:52:29;8.30;1.00
6662;DHT22;3367;48.714;8.994;2023-02-15T10:55:07;8.40;1.00
6662;DHT22;3367;48.714;8.994;2023-02-15T10:57:43;8.60;1.00
6662;DHT22;3367;48.714;8.994;2023-02-15T11:00:17;8.70;1.00
6662;DHT22;3367;48.714;8.994;2023-02-15T11:03:05;8.90;1.00
6662;DHT22;3367;48.714;8.994;2023-02-15T11:05:41;9.00;1.00
6662;DHT22;3367;48.714;8.994;2023-02-15T11:08:15;9.20;1.00
6662;DHT22;3367;48.714;8.994;2023-02-15T11:10:44;9.30;1.00
6662;DHT22;3367;48.714;8.994;2023-02-15T11:13:15;9.30;1.00
6662;DHT22;3367;48.714;8.994;2023-02-15T11:15:44;9.30;1.00
6662;DHT22;3367;48.714;8.994;2023-02-15T11:18:15;9.30;1.00
6662;DHT22;3367;48.714;8.994;2023-02-15T11:20:52;9.30;1.00
6662;DHT22;3367;48.714;8.994;2023-02-15T11:23:19;9.30;1.00
6662;DHT22;3367;48.714;8.994;2023-02-15T11:25:54;9.30;1.00
6662;DHT22;3367;48.714;8.994;2023-02-15T11:28:24;9.30;1.00
6662;DHT22;3367;48.714;8.994;2023-02-15T11:30:55;9.40;1.00
6662;DHT22;3367;48.714;8.994;2023-02-15T11:33:26;9.60;1.00
6662;DHT22;3367;48.714;8.994;2023-02-15T11:35:59;9.70;1.00
6662;DHT22;3367;48.714;8.994;2023-02-15T11:38:28;9.80;1.00
6662;DHT22;3367;48.714;8.994;2023-02-15T11:41:01;10.00;1.00
6662;DHT22;3367;48.714;8.994;2023-02-15T11:43:35;10.00;1.00
6662;DHT22;3367;48.714;8.994;2023-02-15T11:46:03;10.10;1.00
6662;DHT22;3367;48.714;8.994;2023-02-15T11:48:32;10.20;1.00
6662;DHT22;3367;48.714;8.994;2023-02-15T11:50:59;10.30;1.00
6662;DHT22;3367;48.714;8.994;2023-02-15T11:53:30;10.40;1.00
6662;DHT22;3367;48.714;8.994;2023-02-15T11:55:58;10.50;1.00
6662;DHT22;3367;48.714;8.994;2023-02-15T11:58:30;10.60;1.00
6662;DHT22;3367;48.714;8.994;2023-02-15T12:01:04;10.70;1.00
6662;DHT22;3367;48.714;8.994;2023-02-15T12:03:45;10.80;1.00
6662;DHT22;3367;48.714;8.994;2023-02-15T12:06:18;10.80;1.00
6662;DHT22;3367;48.714;8.994;2023-02-15T12:08:52;10.90;1.00
6662;DHT22;3367;48.714;8.994;2023-02-15T12:11:25;11.00;1.00
6662;DHT22;3367;48.714;8.994;2023-02-15T12:13:57;11.20;1.00
6662;DHT22;3367;48.714;8.994;2023-02-15T12:16:25;11.20;1.00
6662;DHT22;3367;48.714;8.994;2023-02-15T12:18:55;11.30;1.00
6662;DHT22;3367;48.714;8.994;2023-02-15T12:21:28;11.40;1.00
6662;DHT22;3367;48.714;8.994;2023-02-15T12:23:58;11.50;1.00
6662;DHT22;3367;48.714;8.994;2023-02-15T12:26:28;11.70;1.00
6662;DHT22;3367;48.714;8.994;2023-02-15T12:28:58;11.70;1.00
6662;DHT22;3367;48.714;8.994;2023-02-15T12:31:36;11.80;1.00
6662;DHT22;3367;48.714;8.994;2023-02-15T12:34:11;12.00;1.00
6662;DHT22;3367;48.714;8.994;2023-02-15T12:36:42;11.90;1.00
6662;DHT22;3367;48.714;8.994;2023-02-15T12:39:20;11.90;1.00
6662;DHT22;3367;48.714;8.994;2023-02-15T12:42:02;11.90;1.00
6662;DHT22;3367;48.714;8.994;2023-02-15T12:44:31;12.10;1.00
6662;DHT22;3367;48.714;8.994;2023-02-15T12:47:00;12.10;1.00
6662;DHT22;3367;48.714;8.994;2023-02-15T12:49:29;12.20;1.00
6662;DHT22;3367;48.714;8.994;2023-02-15T12:51:58;12.50;1.00
6662;DHT22;3367;48.714;8.994;2023-02-15T12:54:35;12.60;1.00
6662;DHT22;3367;48.714;8.994;2023-02-15T12:57:19;12.70;1.00
6662;DHT22;3367;48.714;8.994;2023-02-15T12:59:51;12.70;1.00
6662;DHT22;3367;48.714;8.994;2023-02-15T13:02:31;12.80;1.00
6662;DHT22;3367;48.714;8.994;2023-02-15T13:05:14;12.90;1.00
6662;DHT22;3367;48.714;8.994;2023-02-15T13:07:45;12.90;1.00
6662;DHT22;3367;48.714;8.994;2023-02-15T13:10:21;13.00;1.00
6662;DHT22;3367;48.714;8.994;2023-02-15T13:12:50;13.10;1.00
6662;DHT22;3367;48.714;8.994;2023-02-15T13:15:28;13.10;1.00
6662;DHT22;3367;48.714;8.994;2023-02-15T13:17:57;13.00;1.00
6662;DHT22;3367;48.714;8.994;2023-02-15T13:20:26;13.00;1.00
6662;DHT22;3367;48.714;8.994;2023-02-15T13:22:57;13.10;1.00
6662;DHT22;3367;48.714;8.994;2023-02-15T13:25:28;13.10;1.00
6662;DHT22;3367;48.714;8.994;2023-02-15T13:27:58;13.30;1.00
6662;DHT22;3367;48.714;8.994;2023-02-15T13:30:30;13.20;1.00
6662;DHT22;3367;48.714;8.994;2023-02-15T13:33:00;13.20;1.00
6662;DHT22;3367;48.714;8.994;2023-02-15T13:35:37;13.20;1.00
6662;DHT22;3367;48.714;8.994;2023-02-15T13:38:22;13.30;1.00
6662;DHT22;3367;48.714;8.994;2023-02-15T13:40:55;13.40;1.00
6662;DHT22;3367;48.714;8.994;2023-02-15T13:43:36;13.40;1.00
6662;DHT22;3367;48.714;8.994;2023-02-15T13:46:15;13.30;1.00
6662;DHT22;3367;48.714;8.994;2023-02-15T13:48:49;13.30;1.00
6662;DHT22;3367;48.714;8.994;2023-02-15T13:51:22;13.40;1.00
6662;DHT22;3367;48.714;8.994;2023-02-15T13:54:04;13.40;1.00
6662;DHT22;3367;48.714;8.994;2023-02-15T13:56:44;13.40;1.00
6662;DHT22;3367;48.714;8.994;2023-02-15T13:59:42;13.40;1.00
6662;DHT22;3367;48.714;8.994;2023-02-15T14:02:42;13.40;1.00
6662;DHT22;3367;48.714;8.994;2023-02-15T14:05:39;13.40;1.00
6662;DHT22;3367;48.714;8.994;2023-02-15T14:08:14;13.30;1.00
6662;DHT22;3367;48.714;8.994;2023-02-15T14:10:51;13.30;1.00
6662;DHT22;3367;48.714;8.994;2023-02-15T14:16:41;13.40;1.00
6662;DHT22;3367;48.714;8.994;2023-02-15T14:19:16;13.40;1.00
6662;DHT22;3367;48.714;8.994;2023-02-15T14:21:50;13.30;1.00
6662;DHT22;3367;48.714;8.994;2023-02-15T14:24:30;13.40;1.00
6662;DHT22;3367;48.714;8.994;2023-02-15T14:27:05;13.50;1.00
6662;DHT22;3367;48.714;8.994;2023-02-15T14:29:47;13.30;1.00
6662;DHT22;3367;48.714;8.994;2023-02-15T14:32:18;13.30;1.00
6662;DHT22;3367;48.714;8.994;2023-02-15T14:34:49;13.30;1.00
6662;DHT22;3367;48.714;8.994;2023-02-15T14:37:21;13.30;1.00
6662;DHT22;3367;48.714;8.994;2023-02-15T14:39:54;13.20;1.00
6662;DHT22;3367;48.714;8.994;2023-02-15T14:42:52;13.30;1.00
6662;DHT22;3367;48.714;8.994;2023-02-15T14:45:24;13.30;1.00
6662;DHT22;3367;48.714;8.994;2023-02-15T14:48:00;13.20;1.00
6662;DHT22;3367;48.714;8.994;2023-02-15T14:50:43;13.10;1.00
6662;DHT22;3367;48.714;8.994;2023-02-15T14:53:32;13.10;1.00
6662;DHT22;3367;48.714;8.994;2023-02-15T14:56:20;13.10;1.00
6662;DHT22;3367;48.714;8.994;2023-02-15T14:59:00;13.20;1.00
6662;DHT22;3367;48.714;8.994;2023-02-15T15:01:32;13.80;1.00
6662;DHT22;3367;48.714;8.994;2023-02-15T15:04:02;14.10;1.00
6662;DHT22;3367;48.714;8.994;2023-02-15T15:06:31;14.70;1.00
6662;DHT22;3367;48.714;8.994;2023-02-15T15:09:08;14.60;1.00
6662;DHT22;3367;48.714;8.994;2023-02-15T15:11:40;14.20;1.00
6662;DHT22;3367;48.714;8.994;2023-02-15T15:14:08;13.70;1.00
6662;DHT22;3367;48.714;8.994;2023-02-15T15:16:48;13.20;1.00
6662;DHT22;3367;48.714;8.994;2023-02-15T15:22:34;12.60;1.00
6662;DHT22;3367;48.714;8.994;2023-02-15T15:25:02;12.40;1.00
6662;DHT22;3367;48.714;8.994;2023-02-15T15:27:46;12.30;1.00
6662;DHT22;3367;48.714;8.994;2023-02-15T15:30:47;12.10;1.00
6662;DHT22;3367;48.714;8.994;2023-02-15T15:33:35;12.00;1.00
6662;DHT22;3367;48.714;8.994;2023-02-15T15:39:15;11.80;1.00
6662;DHT22;3367;48.714;8.994;2023-02-15T15:41:52;11.70;1.00
6662;DHT22;3367;48.714;8.994;2023-02-15T15:44:40;11.60;1.00
6662;DHT22;3367;48.714;8.994;2023-02-15T15:47:23;11.50;1.00
6662;DHT22;3367;48.714;8.994;2023-02-15T15:49:56;11.40;1.00
6662;DHT22;3367;48.714;8.994;2023-02-15T15:52:24;11.30;1.00
6662;DHT22;3367;48.714;8.994;2023-02-15T15:54:54;11.20;1.00
6662;DHT22;3367;48.714;8.994;2023-02-15T15:57:26;11.10;1.00
6662;DHT22;3367;48.714;8.994;2023-02-15T15:59:56;11.10;1.00
6662;DHT22;3367;48.714;8.994;2023-02-15T16:02:25;10.90;1.00
6662;DHT22;3367;48.714;8.994;2023-02-15T16:04:52;10.70;1.00
6662;DHT22;3367;48.714;8.994;2023-02-15T16:07:26;10.60;1.00
6662;DHT22;3367;48.714;8.994;2023-02-15T16:09:54;10.50;1.00
6662;DHT22;3367;48.714;8.994;2023-02-15T16:12:21;10.40;1.00
6662;DHT22;3367;48.714;8.994;2023-02-15T16:14:49;10.20;1.00
6662;DHT22;3367;48.714;8.994;2023-02-15T16:17:22;10.10;1.00
6662;DHT22;3367;48.714;8.994;2023-02-15T16:19:50;9.90;1.00
6662;DHT22;3367;48.714;8.994;2023-02-15T16:22:21;9.70;1.00
6662;DHT22;3367;48.714;8.994;2023-02-15T16:25:11;9.70;1.00
6662;DHT22;3367;48.714;8.994;2023-02-15T16:27:43;9.60;1.00
6662;DHT22;3367;48.714;8.994;2023-02-15T16:30:27;9.40;1.00
6662;DHT22;3367;48.714;8.994;2023-02-15T16:33:04;9.20;1.00
6662;DHT22;3367;48.714;8.994;2023-02-15T16:35:32;9.10;1.00
6662;DHT22;3367;48.714;8.994;2023-02-15T16:37:59;8.80;1.00
6662;DHT22;3367;48.714;8.994;2023-02-15T16:40:33;8.70;1.00
6662;DHT22;3367;48.714;8.994;2023-02-15T16:43:04;8.60;1.00
6662;DHT22;3367;48.714;8.994;2023-02-15T16:45:33;8.50;1.00
6662;DHT22;3367;48.714;8.994;2023-02-15T16:48:07;8.40;1.00
6662;DHT22;3367;48.714;8.994;2023-02-15T16:50:37;8.20;1.00
6662;DHT22;3367;48.714;8.994;2023-02-15T16:53:07;8.00;1.00
6662;DHT22;3367;48.714;8.994;2023-02-15T16:55:50;7.80;1.00
6662;DHT22;3367;48.714;8.994;2023-02-15T16:58:28;7.80;1.00